sensor_id;sensor_type;location;lat;lon;timestamp;P1;durP1;ratioP1;P2;durP2;ratioP2
5904;SDS011;2978;42.012;24.880;2022-09-30T00:00:56;11.97;;;4.20;;
5904;SDS011;2978;42.012;24.880;2022-09-30T00:03:22;7.10;;;4.83;;
5904;SDS011;2978;42.012;24.880;2022-09-30T00:05:54;4.63;;;4.13;;
5904;SDS011;2978;42.012;24.880;2022-09-30T00:08:23;8.27;;;4.60;;
5904;SDS011;2978;42.012;24.880;2022-09-30T00:13:30;6.60;;;4.43;;
5904;SDS011;2978;42.012;24.880;2022-09-30T00:15:56;6.57;;;3.93;;
5904;SDS011;2978;42.012;24.880;2022-09-30T00:18:22;5.63;;;4.50;;
5904;SDS011;2978;42.012;24.880;2022-09-30T00:20:47;4.70;;;4.10;;
5904;SDS011;2978;42.012;24.880;2022-09-30T00:23:13;4.90;;;3.70;;
5904;SDS011;2978;42.012;24.880;2022-09-30T00:25:38;10.70;;;4.10;;
5904;SDS011;2978;42.012;24.880;2022-09-30T00:28:04;7.73;;;4.80;;
5904;SDS011;2978;42.012;24.880;2022-09-30T00:30:31;6.57;;;4.27;;
5904;SDS011;2978;42.012;24.880;2022-09-30T00:32:57;4.60;;;3.70;;
5904;SDS011;2978;42.012;24.880;2022-09-30T00:35:23;6.33;;;3.93;;
5904;SDS011;2978;42.012;24.880;2022-09-30T00:37:49;4.30;;;3.90;;
5904;SDS011;2978;42.012;24.880;2022-09-30T00:40:14;8.20;;;4.10;;
5904;SDS011;2978;42.012;24.880;2022-09-30T00:42:40;7.13;;;4.13;;
5904;SDS011;2978;42.012;24.880;2022-09-30T00:45:07;7.57;;;4.93;;
5904;SDS011;2978;42.012;24.880;2022-09-30T00:55:31;9.77;;;4.20;;
5904;SDS011;2978;42.012;24.880;2022-09-30T00:57:57;6.10;;;4.13;;
5904;SDS011;2978;42.012;24.880;2022-09-30T01:00:25;10.37;;;4.30;;
5904;SDS011;2978;42.012;24.880;2022-09-30T01:02:51;6.67;;;4.27;;
5904;SDS011;2978;42.012;24.880;2022-09-30T01:05:16;6.70;;;4.73;;
5904;SDS011;2978;42.012;24.880;2022-09-30T01:07:42;7.27;;;4.20;;
5904;SDS011;2978;42.012;24.880;2022-09-30T01:10:08;8.60;;;4.00;;
5904;SDS011;2978;42.012;24.880;2022-09-30T01:12:33;5.00;;;4.13;;
5904;SDS011;2978;42.012;24.880;2022-09-30T01:14:59;5.57;;;4.33;;
5904;SDS011;2978;42.012;24.880;2022-09-30T01:23:16;6.00;;;4.13;;
5904;SDS011;2978;42.012;24.880;2022-09-30T01:38:08;6.30;;;4.77;;
5904;SDS011;2978;42.012;24.880;2022-09-30T01:43:28;4.93;;;4.13;;
5904;SDS011;2978;42.012;24.880;2022-09-30T01:54:15;4.80;;;3.90;;
5904;SDS011;2978;42.012;24.880;2022-09-30T01:56:47;4.63;;;3.83;;
5904;SDS011;2978;42.012;24.880;2022-09-30T01:59:24;4.70;;;3.97;;
5904;SDS011;2978;42.012;24.880;2022-09-30T02:02:08;9.20;;;4.93;;
5904;SDS011;2978;42.012;24.880;2022-09-30T02:04:44;5.17;;;4.20;;
5904;SDS011;2978;42.012;24.880;2022-09-30T02:07:27;7.70;;;4.37;;
5904;SDS011;2978;42.012;24.880;2022-09-30T02:09:59;7.17;;;4.60;;
5904;SDS011;2978;42.012;24.880;2022-09-30T02:12:31;9.60;;;4.40;;
5904;SDS011;2978;42.012;24.880;2022-09-30T02:15:04;7.60;;;4.67;;
5904;SDS011;2978;42.012;24.880;2022-09-30T02:17:36;5.10;;;4.40;;
5904;SDS011;2978;42.012;24.880;2022-09-30T02:20:11;7.20;;;3.80;;
5904;SDS011;2978;42.012;24.880;2022-09-30T02:22:43;8.23;;;4.33;;
5904;SDS011;2978;42.012;24.880;2022-09-30T02:25:29;4.77;;;4.27;;
5904;SDS011;2978;42.012;24.880;2022-09-30T02:28:00;5.93;;;5.33;;
5904;SDS011;2978;42.012;24.880;2022-09-30T02:30:34;8.10;;;4.50;;
5904;SDS011;2978;42.012;24.880;2022-09-30T02:33:04;6.50;;;4.43;;
5904;SDS011;2978;42.012;24.880;2022-09-30T02:35:44;5.90;;;4.77;;
5904;SDS011;2978;42.012;24.880;2022-09-30T02:38:15;6.83;;;3.83;;
5904;SDS011;2978;42.012;24.880;2022-09-30T02:40:45;5.10;;;4.00;;
5904;SDS011;2978;42.012;24.880;2022-09-30T02:43:15;4.73;;;4.20;;
5904;SDS011;2978;42.012;24.880;2022-09-30T02:48:45;4.33;;;3.70;;
5904;SDS011;2978;42.012;24.880;2022-09-30T02:51:22;6.70;;;4.17;;
5904;SDS011;2978;42.012;24.880;2022-09-30T02:57:01;7.20;;;4.67;;
5904;SDS011;2978;42.012;24.880;2022-09-30T02:59:28;5.93;;;3.60;;
5904;SDS011;2978;42.012;24.880;2022-09-30T03:01:55;10.30;;;4.33;;
5904;SDS011;2978;42.012;24.880;2022-09-30T03:04:21;6.93;;;4.30;;
5904;SDS011;2978;42.012;24.880;2022-09-30T03:06:50;8.13;;;5.40;;
5904;SDS011;2978;42.012;24.880;2022-09-30T03:09:16;7.90;;;4.17;;
5904;SDS011;2978;42.012;24.880;2022-09-30T03:11:41;7.47;;;4.83;;
5904;SDS011;2978;42.012;24.880;2022-09-30T03:30:09;4.13;;;3.77;;
5904;SDS011;2978;42.012;24.880;2022-09-30T03:33:00;10.50;;;4.27;;
5904;SDS011;2978;42.012;24.880;2022-09-30T03:43:49;5.23;;;3.60;;
5904;SDS011;2978;42.012;24.880;2022-09-30T03:46:20;4.67;;;3.87;;
5904;SDS011;2978;42.012;24.880;2022-09-30T03:49:23;13.30;;;4.10;;
5904;SDS011;2978;42.012;24.880;2022-09-30T03:51:56;5.80;;;4.33;;
5904;SDS011;2978;42.012;24.880;2022-09-30T03:54:24;6.10;;;3.23;;
5904;SDS011;2978;42.012;24.880;2022-09-30T03:56:50;5.20;;;4.03;;
5904;SDS011;2978;42.012;24.880;2022-09-30T03:59:21;4.07;;;3.50;;
5904;SDS011;2978;42.012;24.880;2022-09-30T04:01:50;4.30;;;3.63;;
5904;SDS011;2978;42.012;24.880;2022-09-30T04:04:16;4.13;;;3.70;;
5904;SDS011;2978;42.012;24.880;2022-09-30T04:06:42;6.40;;;3.47;;
5904;SDS011;2978;42.012;24.880;2022-09-30T04:09:07;11.10;;;5.03;;
5904;SDS011;2978;42.012;24.880;2022-09-30T04:11:33;13.70;;;6.67;;
5904;SDS011;2978;42.012;24.880;2022-09-30T04:13:59;13.23;;;5.70;;
5904;SDS011;2978;42.012;24.880;2022-09-30T04:16:27;24.00;;;7.27;;
5904;SDS011;2978;42.012;24.880;2022-09-30T04:18:53;15.87;;;6.30;;
5904;SDS011;2978;42.012;24.880;2022-09-30T04:21:20;10.70;;;5.03;;
5904;SDS011;2978;42.012;24.880;2022-09-30T04:23:46;12.20;;;4.33;;
5904;SDS011;2978;42.012;24.880;2022-09-30T04:26:14;6.87;;;4.63;;
5904;SDS011;2978;42.012;24.880;2022-09-30T04:28:41;6.63;;;4.23;;
5904;SDS011;2978;42.012;24.880;2022-09-30T04:31:07;7.47;;;4.10;;
5904;SDS011;2978;42.012;24.880;2022-09-30T04:33:35;10.07;;;4.40;;
5904;SDS011;2978;42.012;24.880;2022-09-30T04:36:01;9.03;;;4.00;;
5904;SDS011;2978;42.012;24.880;2022-09-30T04:38:27;9.53;;;4.40;;
5904;SDS011;2978;42.012;24.880;2022-09-30T04:40:54;5.10;;;3.40;;
5904;SDS011;2978;42.012;24.880;2022-09-30T04:43:20;7.20;;;4.00;;
5904;SDS011;2978;42.012;24.880;2022-09-30T04:45:47;9.50;;;3.50;;
5904;SDS011;2978;42.012;24.880;2022-09-30T04:48:13;7.27;;;3.33;;
5904;SDS011;2978;42.012;24.880;2022-09-30T04:50:40;6.07;;;4.10;;
5904;SDS011;2978;42.012;24.880;2022-09-30T04:53:06;7.90;;;3.87;;
5904;SDS011;2978;42.012;24.880;2022-09-30T04:55:32;8.83;;;3.80;;
5904;SDS011;2978;42.012;24.880;2022-09-30T04:57:58;11.23;;;3.50;;
5904;SDS011;2978;42.012;24.880;2022-09-30T05:00:24;5.37;;;3.60;;
5904;SDS011;2978;42.012;24.880;2022-09-30T05:02:50;6.90;;;4.37;;
5904;SDS011;2978;42.012;24.880;2022-09-30T05:05:16;6.33;;;4.47;;
5904;SDS011;2978;42.012;24.880;2022-09-30T05:07:42;11.77;;;4.00;;
5904;SDS011;2978;42.012;24.880;2022-09-30T05:10:08;4.27;;;3.53;;
5904;SDS011;2978;42.012;24.880;2022-09-30T05:12:35;6.20;;;3.73;;
5904;SDS011;2978;42.012;24.880;2022-09-30T05:15:02;6.20;;;3.80;;
5904;SDS011;2978;42.012;24.880;2022-09-30T05:17:29;7.97;;;3.30;;
5904;SDS011;2978;42.012;24.880;2022-09-30T05:19:55;6.97;;;3.57;;
5904;SDS011;2978;42.012;24.880;2022-09-30T05:22:20;7.37;;;3.60;;
5904;SDS011;2978;42.012;24.880;2022-09-30T05:24:48;22.20;;;6.27;;
5904;SDS011;2978;42.012;24.880;2022-09-30T05:27:14;18.10;;;7.83;;
5904;SDS011;2978;42.012;24.880;2022-09-30T05:29:39;14.00;;;4.17;;
5904;SDS011;2978;42.012;24.880;2022-09-30T05:32:06;7.70;;;3.60;;
5904;SDS011;2978;42.012;24.880;2022-09-30T05:34:31;5.00;;;3.40;;
5904;SDS011;2978;42.012;24.880;2022-09-30T05:36:57;9.10;;;3.93;;
5904;SDS011;2978;42.012;24.880;2022-09-30T05:39:23;10.60;;;4.03;;
5904;SDS011;2978;42.012;24.880;2022-09-30T05:41:48;6.30;;;3.83;;
5904;SDS011;2978;42.012;24.880;2022-09-30T05:44:13;4.50;;;2.90;;
5904;SDS011;2978;42.012;24.880;2022-09-30T05:46:39;10.00;;;4.43;;
5904;SDS011;2978;42.012;24.880;2022-09-30T05:49:04;17.77;;;6.00;;
5904;SDS011;2978;42.012;24.880;2022-09-30T05:51:30;13.60;;;4.40;;
5904;SDS011;2978;42.012;24.880;2022-09-30T05:53:56;4.60;;;3.67;;
5904;SDS011;2978;42.012;24.880;2022-09-30T05:56:21;7.97;;;4.83;;
5904;SDS011;2978;42.012;24.880;2022-09-30T05:58:46;16.60;;;5.87;;
5904;SDS011;2978;42.012;24.880;2022-09-30T06:01:13;25.57;;;7.40;;
5904;SDS011;2978;42.012;24.880;2022-09-30T06:03:39;30.30;;;8.13;;
5904;SDS011;2978;42.012;24.880;2022-09-30T06:06:06;21.93;;;8.40;;
5904;SDS011;2978;42.012;24.880;2022-09-30T06:08:32;24.63;;;7.60;;
5904;SDS011;2978;42.012;24.880;2022-09-30T06:10:57;19.30;;;6.83;;
5904;SDS011;2978;42.012;24.880;2022-09-30T06:13:24;13.83;;;6.03;;
5904;SDS011;2978;42.012;24.880;2022-09-30T06:15:59;13.47;;;5.10;;
5904;SDS011;2978;42.012;24.880;2022-09-30T06:18:26;23.60;;;5.40;;
5904;SDS011;2978;42.012;24.880;2022-09-30T06:20:58;17.90;;;6.53;;
5904;SDS011;2978;42.012;24.880;2022-09-30T06:23:26;19.67;;;6.50;;
5904;SDS011;2978;42.012;24.880;2022-09-30T06:25:52;24.80;;;7.50;;
5904;SDS011;2978;42.012;24.880;2022-09-30T06:28:18;37.00;;;8.10;;
5904;SDS011;2978;42.012;24.880;2022-09-30T06:30:44;27.93;;;7.37;;
5904;SDS011;2978;42.012;24.880;2022-09-30T06:33:11;20.80;;;6.43;;
5904;SDS011;2978;42.012;24.880;2022-09-30T06:35:37;16.87;;;6.90;;
5904;SDS011;2978;42.012;24.880;2022-09-30T06:38:05;17.63;;;6.53;;
5904;SDS011;2978;42.012;24.880;2022-09-30T06:40:30;14.37;;;5.40;;
5904;SDS011;2978;42.012;24.880;2022-09-30T06:42:59;16.87;;;6.87;;
5904;SDS011;2978;42.012;24.880;2022-09-30T06:45:26;14.70;;;5.50;;
5904;SDS011;2978;42.012;24.880;2022-09-30T06:47:59;19.30;;;6.30;;
5904;SDS011;2978;42.012;24.880;2022-09-30T06:50:25;17.57;;;5.50;;
5904;SDS011;2978;42.012;24.880;2022-09-30T06:52:51;13.73;;;5.90;;
5904;SDS011;2978;42.012;24.880;2022-09-30T06:55:21;24.70;;;5.63;;
5904;SDS011;2978;42.012;24.880;2022-09-30T06:57:48;16.40;;;6.30;;
5904;SDS011;2978;42.012;24.880;2022-09-30T07:00:14;18.53;;;6.00;;
5904;SDS011;2978;42.012;24.880;2022-09-30T07:02:41;11.60;;;5.53;;
5904;SDS011;2978;42.012;24.880;2022-09-30T07:05:07;8.13;;;5.33;;
5904;SDS011;2978;42.012;24.880;2022-09-30T07:07:33;10.17;;;5.93;;
5904;SDS011;2978;42.012;24.880;2022-09-30T07:10:00;13.43;;;6.20;;
5904;SDS011;2978;42.012;24.880;2022-09-30T07:12:26;13.70;;;6.17;;
5904;SDS011;2978;42.012;24.880;2022-09-30T07:14:52;18.30;;;6.27;;
5904;SDS011;2978;42.012;24.880;2022-09-30T07:17:17;7.50;;;5.00;;
5904;SDS011;2978;42.012;24.880;2022-09-30T07:19:43;18.87;;;6.50;;
5904;SDS011;2978;42.012;24.880;2022-09-30T07:22:08;23.27;;;6.33;;
5904;SDS011;2978;42.012;24.880;2022-09-30T07:25:01;12.10;;;5.97;;
5904;SDS011;2978;42.012;24.880;2022-09-30T07:27:28;13.53;;;6.70;;
5904;SDS011;2978;42.012;24.880;2022-09-30T07:29:56;14.53;;;5.93;;
5904;SDS011;2978;42.012;24.880;2022-09-30T07:32:23;13.17;;;6.33;;
5904;SDS011;2978;42.012;24.880;2022-09-30T07:34:48;11.33;;;5.00;;
5904;SDS011;2978;42.012;24.880;2022-09-30T07:37:14;22.83;;;5.97;;
5904;SDS011;2978;42.012;24.880;2022-09-30T07:39:42;12.20;;;5.70;;
5904;SDS011;2978;42.012;24.880;2022-09-30T07:42:09;18.57;;;6.37;;
5904;SDS011;2978;42.012;24.880;2022-09-30T07:44:36;14.40;;;6.10;;
5904;SDS011;2978;42.012;24.880;2022-09-30T07:47:08;11.20;;;5.80;;
5904;SDS011;2978;42.012;24.880;2022-09-30T07:49:35;9.30;;;6.03;;
5904;SDS011;2978;42.012;24.880;2022-09-30T07:52:02;8.60;;;5.63;;
5904;SDS011;2978;42.012;24.880;2022-09-30T07:54:29;18.83;;;5.83;;
5904;SDS011;2978;42.012;24.880;2022-09-30T07:56:56;15.20;;;4.87;;
5904;SDS011;2978;42.012;24.880;2022-09-30T07:59:24;14.50;;;6.10;;
5904;SDS011;2978;42.012;24.880;2022-09-30T08:01:51;11.83;;;6.57;;
5904;SDS011;2978;42.012;24.880;2022-09-30T08:04:17;20.70;;;5.77;;
5904;SDS011;2978;42.012;24.880;2022-09-30T08:06:49;14.93;;;5.23;;
5904;SDS011;2978;42.012;24.880;2022-09-30T08:09:18;13.50;;;7.23;;
5904;SDS011;2978;42.012;24.880;2022-09-30T08:11:45;12.03;;;6.00;;
5904;SDS011;2978;42.012;24.880;2022-09-30T08:14:15;13.93;;;5.57;;
5904;SDS011;2978;42.012;24.880;2022-09-30T08:16:42;14.63;;;5.80;;
5904;SDS011;2978;42.012;24.880;2022-09-30T08:19:08;11.07;;;4.97;;
5904;SDS011;2978;42.012;24.880;2022-09-30T08:21:38;19.63;;;5.40;;
5904;SDS011;2978;42.012;24.880;2022-09-30T08:24:03;13.67;;;6.17;;
5904;SDS011;2978;42.012;24.880;2022-09-30T08:26:29;12.73;;;5.80;;
5904;SDS011;2978;42.012;24.880;2022-09-30T08:28:54;9.37;;;4.23;;
5904;SDS011;2978;42.012;24.880;2022-09-30T08:31:20;9.77;;;4.87;;
5904;SDS011;2978;42.012;24.880;2022-09-30T08:33:47;10.80;;;5.43;;
5904;SDS011;2978;42.012;24.880;2022-09-30T08:36:16;13.13;;;4.53;;
5904;SDS011;2978;42.012;24.880;2022-09-30T08:38:44;9.87;;;4.53;;
5904;SDS011;2978;42.012;24.880;2022-09-30T08:51:46;6.60;;;3.77;;
5904;SDS011;2978;42.012;24.880;2022-09-30T08:54:15;7.03;;;4.03;;
5904;SDS011;2978;42.012;24.880;2022-09-30T08:56:44;8.37;;;3.73;;
5904;SDS011;2978;42.012;24.880;2022-09-30T08:59:14;9.70;;;3.77;;
5904;SDS011;2978;42.012;24.880;2022-09-30T09:04:48;7.20;;;3.83;;
5904;SDS011;2978;42.012;24.880;2022-09-30T09:07:44;6.30;;;3.80;;
5904;SDS011;2978;42.012;24.880;2022-09-30T09:13:08;9.53;;;4.63;;
5904;SDS011;2978;42.012;24.880;2022-09-30T09:24:15;5.37;;;3.10;;
5904;SDS011;2978;42.012;24.880;2022-09-30T09:26:43;6.23;;;3.73;;
5904;SDS011;2978;42.012;24.880;2022-09-30T09:32:16;11.53;;;3.50;;
5904;SDS011;2978;42.012;24.880;2022-09-30T09:34:43;5.93;;;3.30;;
5904;SDS011;2978;42.012;24.880;2022-09-30T09:37:21;7.23;;;4.23;;
5904;SDS011;2978;42.012;24.880;2022-09-30T09:43:20;8.60;;;4.20;;
5904;SDS011;2978;42.012;24.880;2022-09-30T09:45:55;9.17;;;4.10;;
5904;SDS011;2978;42.012;24.880;2022-09-30T09:48:28;7.33;;;4.37;;
5904;SDS011;2978;42.012;24.880;2022-09-30T09:50:59;9.50;;;4.53;;
5904;SDS011;2978;42.012;24.880;2022-09-30T09:53:41;14.13;;;3.73;;
5904;SDS011;2978;42.012;24.880;2022-09-30T09:56:15;11.47;;;4.67;;
5904;SDS011;2978;42.012;24.880;2022-09-30T10:01:33;7.47;;;4.10;;
5904;SDS011;2978;42.012;24.880;2022-09-30T10:04:14;6.93;;;3.73;;
5904;SDS011;2978;42.012;24.880;2022-09-30T10:09:33;9.70;;;3.73;;
5904;SDS011;2978;42.012;24.880;2022-09-30T10:14:32;7.03;;;3.30;;
5904;SDS011;2978;42.012;24.880;2022-09-30T10:16:59;8.97;;;4.20;;
5904;SDS011;2978;42.012;24.880;2022-09-30T10:19:30;9.50;;;3.90;;
5904;SDS011;2978;42.012;24.880;2022-09-30T10:24:33;5.60;;;3.27;;
5904;SDS011;2978;42.012;24.880;2022-09-30T10:27:00;16.37;;;4.67;;
5904;SDS011;2978;42.012;24.880;2022-09-30T10:29:30;5.30;;;3.80;;
5904;SDS011;2978;42.012;24.880;2022-09-30T10:31:58;9.00;;;3.70;;
5904;SDS011;2978;42.012;24.880;2022-09-30T10:34:32;7.60;;;3.40;;
5904;SDS011;2978;42.012;24.880;2022-09-30T10:37:10;8.43;;;3.60;;
5904;SDS011;2978;42.012;24.880;2022-09-30T10:39:41;6.33;;;4.03;;
5904;SDS011;2978;42.012;24.880;2022-09-30T10:44:43;7.03;;;3.30;;
5904;SDS011;2978;42.012;24.880;2022-09-30T10:47:18;6.00;;;3.43;;
5904;SDS011;2978;42.012;24.880;2022-09-30T10:49:50;6.13;;;3.30;;
5904;SDS011;2978;42.012;24.880;2022-09-30T10:52:25;13.30;;;3.73;;
5904;SDS011;2978;42.012;24.880;2022-09-30T10:54:53;5.20;;;3.20;;
5904;SDS011;2978;42.012;24.880;2022-09-30T10:57:25;6.70;;;3.10;;
5904;SDS011;2978;42.012;24.880;2022-09-30T10:59:59;4.37;;;3.20;;
5904;SDS011;2978;42.012;24.880;2022-09-30T11:05:13;7.60;;;2.90;;
5904;SDS011;2978;42.012;24.880;2022-09-30T11:07:44;5.70;;;3.07;;
5904;SDS011;2978;42.012;24.880;2022-09-30T11:12:59;8.70;;;2.50;;
5904;SDS011;2978;42.012;24.880;2022-09-30T11:21:28;5.50;;;2.97;;
5904;SDS011;2978;42.012;24.880;2022-09-30T11:58:35;4.10;;;2.20;;
5904;SDS011;2978;42.012;24.880;2022-09-30T12:01:11;3.20;;;2.53;;
5904;SDS011;2978;42.012;24.880;2022-09-30T12:03:47;7.53;;;2.27;;
5904;SDS011;2978;42.012;24.880;2022-09-30T12:08:51;8.13;;;2.83;;
5904;SDS011;2978;42.012;24.880;2022-09-30T12:11:32;5.00;;;2.23;;
5904;SDS011;2978;42.012;24.880;2022-09-30T12:14:14;4.20;;;2.10;;
5904;SDS011;2978;42.012;24.880;2022-09-30T12:16:45;5.10;;;2.50;;
5904;SDS011;2978;42.012;24.880;2022-09-30T12:19:14;5.83;;;2.13;;
5904;SDS011;2978;42.012;24.880;2022-09-30T12:21:49;3.97;;;2.07;;
5904;SDS011;2978;42.012;24.880;2022-09-30T12:24:28;4.77;;;2.30;;
5904;SDS011;2978;42.012;24.880;2022-09-30T12:27:00;5.30;;;2.53;;
5904;SDS011;2978;42.012;24.880;2022-09-30T12:29:37;14.63;;;2.67;;
5904;SDS011;2978;42.012;24.880;2022-09-30T12:32:38;4.97;;;2.63;;
5904;SDS011;2978;42.012;24.880;2022-09-30T12:43:04;6.00;;;2.27;;
5904;SDS011;2978;42.012;24.880;2022-09-30T12:46:03;6.30;;;3.00;;
5904;SDS011;2978;42.012;24.880;2022-09-30T12:48:34;3.53;;;2.33;;
5904;SDS011;2978;42.012;24.880;2022-09-30T12:51:03;5.50;;;2.50;;
5904;SDS011;2978;42.012;24.880;2022-09-30T12:53:31;3.77;;;2.33;;
5904;SDS011;2978;42.012;24.880;2022-09-30T12:56:03;5.53;;;2.60;;
5904;SDS011;2978;42.012;24.880;2022-09-30T12:58:31;4.03;;;2.67;;
5904;SDS011;2978;42.012;24.880;2022-09-30T13:01:20;7.67;;;2.40;;
5904;SDS011;2978;42.012;24.880;2022-09-30T13:06:24;5.80;;;3.07;;
5904;SDS011;2978;42.012;24.880;2022-09-30T13:27:28;5.50;;;2.97;;
5904;SDS011;2978;42.012;24.880;2022-09-30T13:40:42;5.97;;;2.73;;
5904;SDS011;2978;42.012;24.880;2022-09-30T13:48:41;9.03;;;2.43;;
5904;SDS011;2978;42.012;24.880;2022-09-30T13:51:13;4.87;;;2.33;;
5904;SDS011;2978;42.012;24.880;2022-09-30T13:53:44;6.27;;;2.50;;
5904;SDS011;2978;42.012;24.880;2022-09-30T13:56:19;6.90;;;2.57;;
5904;SDS011;2978;42.012;24.880;2022-09-30T14:23:14;5.17;;;2.90;;
5904;SDS011;2978;42.012;24.880;2022-09-30T14:28:30;7.93;;;2.87;;
5904;SDS011;2978;42.012;24.880;2022-09-30T14:31:10;7.73;;;2.70;;
5904;SDS011;2978;42.012;24.880;2022-09-30T14:33:38;5.87;;;2.60;;
5904;SDS011;2978;42.012;24.880;2022-09-30T14:36:10;5.43;;;2.70;;
5904;SDS011;2978;42.012;24.880;2022-09-30T14:38:48;3.70;;;2.47;;
5904;SDS011;2978;42.012;24.880;2022-09-30T14:41:19;4.90;;;2.53;;
5904;SDS011;2978;42.012;24.880;2022-09-30T14:43:47;11.00;;;2.83;;
5904;SDS011;2978;42.012;24.880;2022-09-30T14:48:51;5.37;;;2.60;;
5904;SDS011;2978;42.012;24.880;2022-09-30T14:51:19;5.27;;;2.30;;
5904;SDS011;2978;42.012;24.880;2022-09-30T14:53:55;5.73;;;2.70;;
5904;SDS011;2978;42.012;24.880;2022-09-30T14:56:26;5.47;;;2.63;;
5904;SDS011;2978;42.012;24.880;2022-09-30T14:58:54;8.97;;;3.07;;
5904;SDS011;2978;42.012;24.880;2022-09-30T15:01:22;10.13;;;3.57;;
5904;SDS011;2978;42.012;24.880;2022-09-30T15:03:53;12.07;;;4.20;;
5904;SDS011;2978;42.012;24.880;2022-09-30T15:06:24;7.67;;;4.17;;
5904;SDS011;2978;42.012;24.880;2022-09-30T15:09:01;25.00;;;4.27;;
5904;SDS011;2978;42.012;24.880;2022-09-30T15:11:30;19.27;;;5.07;;
5904;SDS011;2978;42.012;24.880;2022-09-30T15:13:59;10.97;;;5.53;;
5904;SDS011;2978;42.012;24.880;2022-09-30T15:16:31;10.97;;;4.90;;
5904;SDS011;2978;42.012;24.880;2022-09-30T15:18:57;11.93;;;5.00;;
5904;SDS011;2978;42.012;24.880;2022-09-30T15:21:23;10.20;;;4.57;;
5904;SDS011;2978;42.012;24.880;2022-09-30T15:23:51;12.40;;;4.90;;
5904;SDS011;2978;42.012;24.880;2022-09-30T15:26:20;6.80;;;4.00;;
5904;SDS011;2978;42.012;24.880;2022-09-30T15:28:48;8.40;;;3.80;;
5904;SDS011;2978;42.012;24.880;2022-09-30T15:31:36;5.00;;;3.70;;
5904;SDS011;2978;42.012;24.880;2022-09-30T15:34:15;9.73;;;3.80;;
5904;SDS011;2978;42.012;24.880;2022-09-30T15:36:43;14.27;;;4.63;;
5904;SDS011;2978;42.012;24.880;2022-09-30T15:39:22;10.07;;;4.70;;
5904;SDS011;2978;42.012;24.880;2022-09-30T15:42:10;7.13;;;3.97;;
5904;SDS011;2978;42.012;24.880;2022-09-30T15:44:51;10.70;;;4.73;;
5904;SDS011;2978;42.012;24.880;2022-09-30T15:47:17;14.77;;;5.90;;
5904;SDS011;2978;42.012;24.880;2022-09-30T15:49:44;12.53;;;6.03;;
5904;SDS011;2978;42.012;24.880;2022-09-30T15:55:33;18.57;;;5.30;;
5904;SDS011;2978;42.012;24.880;2022-09-30T15:58:00;13.23;;;5.37;;
5904;SDS011;2978;42.012;24.880;2022-09-30T16:06:02;14.03;;;6.80;;
5904;SDS011;2978;42.012;24.880;2022-09-30T16:08:30;13.80;;;4.70;;
5904;SDS011;2978;42.012;24.880;2022-09-30T16:11:03;7.23;;;4.07;;
5904;SDS011;2978;42.012;24.880;2022-09-30T16:13:29;8.40;;;4.30;;
5904;SDS011;2978;42.012;24.880;2022-09-30T16:15:56;9.30;;;3.87;;
5904;SDS011;2978;42.012;24.880;2022-09-30T16:18:26;9.57;;;4.40;;
5904;SDS011;2978;42.012;24.880;2022-09-30T16:20:56;5.40;;;3.80;;
5904;SDS011;2978;42.012;24.880;2022-09-30T16:28:40;8.83;;;3.73;;
5904;SDS011;2978;42.012;24.880;2022-09-30T16:31:07;6.27;;;4.17;;
5904;SDS011;2978;42.012;24.880;2022-09-30T16:33:34;8.80;;;4.33;;
5904;SDS011;2978;42.012;24.880;2022-09-30T16:36:06;7.50;;;3.17;;
5904;SDS011;2978;42.012;24.880;2022-09-30T16:38:33;13.57;;;5.10;;
5904;SDS011;2978;42.012;24.880;2022-09-30T16:41:00;7.93;;;3.80;;
5904;SDS011;2978;42.012;24.880;2022-09-30T16:43:27;7.17;;;3.73;;
5904;SDS011;2978;42.012;24.880;2022-09-30T16:45:54;6.60;;;3.63;;
5904;SDS011;2978;42.012;24.880;2022-09-30T16:48:20;10.00;;;4.30;;
5904;SDS011;2978;42.012;24.880;2022-09-30T16:53:41;6.70;;;3.47;;
5904;SDS011;2978;42.012;24.880;2022-09-30T16:56:13;8.63;;;2.90;;
5904;SDS011;2978;42.012;24.880;2022-09-30T16:58:40;6.30;;;3.67;;
5904;SDS011;2978;42.012;24.880;2022-09-30T17:01:13;5.33;;;3.73;;
5904;SDS011;2978;42.012;24.880;2022-09-30T17:03:44;5.57;;;3.53;;
5904;SDS011;2978;42.012;24.880;2022-09-30T17:06:11;7.63;;;3.40;;
5904;SDS011;2978;42.012;24.880;2022-09-30T17:08:37;4.33;;;3.80;;
5904;SDS011;2978;42.012;24.880;2022-09-30T17:11:02;7.13;;;3.40;;
5904;SDS011;2978;42.012;24.880;2022-09-30T17:13:28;6.20;;;3.73;;
5904;SDS011;2978;42.012;24.880;2022-09-30T17:15:54;6.33;;;3.60;;
5904;SDS011;2978;42.012;24.880;2022-09-30T17:18:20;6.20;;;3.40;;
5904;SDS011;2978;42.012;24.880;2022-09-30T17:20:46;5.20;;;2.97;;
5904;SDS011;2978;42.012;24.880;2022-09-30T17:23:20;5.70;;;3.60;;
5904;SDS011;2978;42.012;24.880;2022-09-30T17:25:47;19.30;;;3.93;;
5904;SDS011;2978;42.012;24.880;2022-09-30T17:28:13;6.90;;;3.40;;
5904;SDS011;2978;42.012;24.880;2022-09-30T17:30:40;10.10;;;3.80;;
5904;SDS011;2978;42.012;24.880;2022-09-30T17:33:08;5.40;;;3.17;;
5904;SDS011;2978;42.012;24.880;2022-09-30T17:35:37;4.33;;;3.60;;
5904;SDS011;2978;42.012;24.880;2022-09-30T17:38:05;7.97;;;4.27;;
5904;SDS011;2978;42.012;24.880;2022-09-30T17:40:34;14.50;;;3.70;;
5904;SDS011;2978;42.012;24.880;2022-09-30T17:43:18;13.57;;;3.77;;
5904;SDS011;2978;42.012;24.880;2022-09-30T17:45:45;10.90;;;4.50;;
5904;SDS011;2978;42.012;24.880;2022-09-30T17:48:11;6.60;;;4.30;;
5904;SDS011;2978;42.012;24.880;2022-09-30T17:50:38;8.00;;;3.60;;
5904;SDS011;2978;42.012;24.880;2022-09-30T17:53:08;6.20;;;3.97;;
5904;SDS011;2978;42.012;24.880;2022-09-30T17:55:37;6.17;;;3.60;;
5904;SDS011;2978;42.012;24.880;2022-09-30T17:58:05;4.80;;;3.30;;
5904;SDS011;2978;42.012;24.880;2022-09-30T18:00:33;6.60;;;3.67;;
5904;SDS011;2978;42.012;24.880;2022-09-30T18:02:59;8.10;;;3.53;;
5904;SDS011;2978;42.012;24.880;2022-09-30T18:05:24;4.00;;;3.10;;
5904;SDS011;2978;42.012;24.880;2022-09-30T18:07:51;8.30;;;3.20;;
5904;SDS011;2978;42.012;24.880;2022-09-30T18:10:17;5.77;;;4.00;;
5904;SDS011;2978;42.012;24.880;2022-09-30T18:12:42;5.30;;;3.20;;
5904;SDS011;2978;42.012;24.880;2022-09-30T18:15:08;7.43;;;3.73;;
5904;SDS011;2978;42.012;24.880;2022-09-30T18:17:34;4.87;;;3.67;;
5904;SDS011;2978;42.012;24.880;2022-09-30T18:20:00;8.70;;;4.23;;
5904;SDS011;2978;42.012;24.880;2022-09-30T18:22:25;6.17;;;3.90;;
5904;SDS011;2978;42.012;24.880;2022-09-30T18:24:51;9.60;;;3.70;;
5904;SDS011;2978;42.012;24.880;2022-09-30T18:27:35;12.27;;;4.67;;
5904;SDS011;2978;42.012;24.880;2022-09-30T18:30:00;9.83;;;3.80;;
5904;SDS011;2978;42.012;24.880;2022-09-30T18:32:29;7.17;;;4.10;;
5904;SDS011;2978;42.012;24.880;2022-09-30T18:34:55;20.23;;;5.10;;
5904;SDS011;2978;42.012;24.880;2022-09-30T18:37:21;5.03;;;3.67;;
5904;SDS011;2978;42.012;24.880;2022-09-30T18:39:50;6.93;;;4.07;;
5904;SDS011;2978;42.012;24.880;2022-09-30T18:42:16;5.90;;;4.13;;
5904;SDS011;2978;42.012;24.880;2022-09-30T18:44:45;5.27;;;3.93;;
5904;SDS011;2978;42.012;24.880;2022-09-30T18:47:11;8.07;;;4.20;;
5904;SDS011;2978;42.012;24.880;2022-09-30T18:49:36;7.30;;;3.57;;
5904;SDS011;2978;42.012;24.880;2022-09-30T18:52:01;6.10;;;3.60;;
5904;SDS011;2978;42.012;24.880;2022-09-30T18:54:28;8.33;;;3.37;;
5904;SDS011;2978;42.012;24.880;2022-09-30T18:56:54;6.97;;;3.30;;
5904;SDS011;2978;42.012;24.880;2022-09-30T18:59:20;9.57;;;4.77;;
5904;SDS011;2978;42.012;24.880;2022-09-30T19:01:45;6.77;;;3.63;;
5904;SDS011;2978;42.012;24.880;2022-09-30T19:04:11;7.23;;;3.63;;
5904;SDS011;2978;42.012;24.880;2022-09-30T19:06:37;6.00;;;3.43;;
5904;SDS011;2978;42.012;24.880;2022-09-30T19:09:06;9.60;;;3.70;;
5904;SDS011;2978;42.012;24.880;2022-09-30T19:11:33;8.20;;;4.10;;
5904;SDS011;2978;42.012;24.880;2022-09-30T19:13:59;9.03;;;4.10;;
5904;SDS011;2978;42.012;24.880;2022-09-30T19:16:26;6.50;;;3.73;;
5904;SDS011;2978;42.012;24.880;2022-09-30T19:18:53;5.70;;;3.70;;
5904;SDS011;2978;42.012;24.880;2022-09-30T19:21:19;5.47;;;3.70;;
5904;SDS011;2978;42.012;24.880;2022-09-30T19:23:46;6.97;;;4.50;;
5904;SDS011;2978;42.012;24.880;2022-09-30T19:26:13;5.73;;;4.07;;